createdAt,value
2017-10-11T00:00:05.401Z,9.2
2017-10-11T00:15:03.367Z,9.1
2017-10-11T00:30:04.723Z,9
2017-10-11T00:45:03.512Z,9.1
2017-10-11T01:00:03.445Z,9.2
2017-10-11T01:15:04.063Z,9.2
2017-10-11T01:30:03.083Z,9.4
2017-10-11T01:45:03.017Z,9.4
2017-10-11T02:00:03.706Z,9.4
2017-10-11T02:15:03.936Z,9.6
2017-10-11T02:30:03.873Z,9.5
2017-10-11T02:45:04.520Z,9.5
2017-10-11T03:00:04.295Z,9.5
2017-10-11T03:15:04.559Z,9.5
2017-10-11T03:30:04.770Z,9.5
2017-10-11T03:45:04.975Z,9.3
2017-10-11T04:00:02.865Z,9.2
2017-10-11T04:15:03.867Z,8.9
2017-10-11T04:30:02.853Z,8.8
2017-10-11T04:45:04.711Z,8.6
2017-10-11T05:00:04.543Z,8.4
2017-10-11T05:15:04.417Z,8.4
2017-10-11T05:30:04.143Z,8
2017-10-11T05:45:03.074Z,8.1
2017-10-11T06:00:03.249Z,8.1
2017-10-11T06:15:03.526Z,8.1
2017-10-11T06:30:04.362Z,8.6
2017-10-11T06:45:04.008Z,9.2
2017-10-11T07:00:03.196Z,9.9
2017-10-11T07:15:04.143Z,10.5
2017-10-11T07:30:03.185Z,11
2017-10-11T07:45:02.933Z,11.3
2017-10-11T08:00:03.437Z,11.8
2017-10-11T08:15:04.584Z,12.2
2017-10-11T08:30:03.659Z,13.1
2017-10-11T08:45:06.506Z,13.9
2017-10-11T09:00:06.268Z,14.9
2017-10-11T09:15:04.561Z,15.6
2017-10-11T09:30:04.201Z,16.2
2017-10-11T09:45:04.772Z,16.6
2017-10-11T10:00:03.764Z,17.2
2017-10-11T10:15:03.588Z,17.6
2017-10-11T10:30:02.907Z,17.4
2017-10-11T10:45:03.200Z,18
2017-10-11T11:00:06.571Z,18.1
2017-10-11T11:15:04.728Z,18.7
2017-10-11T11:30:03.468Z,18.9
2017-10-11T11:45:04.307Z,18.6
2017-10-11T12:00:03.036Z,17.2
2017-10-11T12:15:03.736Z,17.1
2017-10-11T12:30:04.728Z,18.4
2017-10-11T12:45:03.198Z,18.4
2017-10-11T13:00:03.030Z,17.9
2017-10-11T13:15:03.337Z,17.4
2017-10-11T13:30:03.949Z,17.9
2017-10-11T13:45:02.853Z,18.4
2017-10-11T14:00:02.976Z,18.5
2017-10-11T14:15:03.214Z,18.6
2017-10-11T14:30:04.326Z,18.9
2017-10-11T14:45:03.419Z,18.6
2017-10-11T15:00:04.350Z,18.6
2017-10-11T15:15:03.626Z,18.3
2017-10-11T15:30:03.682Z,18
2017-10-11T15:45:03.190Z,17.3
2017-10-11T16:00:03.089Z,16.4
2017-10-11T16:15:03.143Z,15.1
2017-10-11T16:30:03.180Z,14.4
2017-10-11T16:45:02.918Z,13.7
2017-10-11T17:00:02.700Z,13.2
2017-10-11T17:15:03.245Z,12.7
2017-10-11T17:30:03.624Z,12.3
2017-10-11T17:45:04.934Z,11.9
2017-10-11T18:00:03.141Z,11.7
2017-10-11T18:15:04.510Z,11.4
2017-10-11T18:30:03.540Z,11.1
2017-10-11T18:45:04.996Z,10.9
2017-10-11T19:00:03.001Z,10.6
2017-10-11T19:15:03.135Z,10.4
2017-10-11T19:30:04.291Z,10.2
2017-10-11T19:45:03.313Z,10.1
2017-10-11T20:00:03.277Z,9.8
2017-10-11T20:15:04.426Z,9.6
2017-10-11T20:30:06.260Z,9.4
2017-10-11T20:45:03.846Z,9.3
2017-10-11T21:00:03.811Z,9
2017-10-11T21:15:04.354Z,8.9
2017-10-11T21:30:04.233Z,8.8
2017-10-11T21:45:04.029Z,8.6
2017-10-11T22:00:02.791Z,8.4
2017-10-11T22:15:04.046Z,8.2
2017-10-11T22:30:04.071Z,8.1
2017-10-11T22:45:03.115Z,8
2017-10-11T23:00:03.048Z,7.8
2017-10-11T23:15:03.022Z,7.7
2017-10-11T23:30:03.887Z,7.5
2017-10-11T23:45:04.864Z,7.6
